PAFA/FAI METAR and TAF weather

Enter ICAO airport designator
Station Type Date Time Source
PAFA METAR 2019/07/15 19:53 UTC NOAA

PAFA 151953Z 03004KT 10SM FEW030 FEW100 21/12 A2973 RMK AO2 SLP071 FU ALQDS T02110122


Station Type Date Time Source
PAFA Decoded METAR 2019/07/15 19:53 UTC NOAA

Fairbanks, Fairbanks International Airport, AK, United States (PAFA) 64-48-14N 147-52-34W 140M
Jul 15, 2019 - 03:53 PM EDT / 2019.07.15 1953 UTC
Wind: from the NNE (030 degrees) at 5 MPH (4 KT):0
Visibility: 10 mile(s):0
Sky conditions: mostly clear
Temperature: 70.0 F (21.1 C)
Dew Point: 54.0 F (12.2 C)
Relative Humidity: 56%
Pressure (altimeter): 29.73 in. Hg (1006 hPa)
ob: PAFA 151953Z 03004KT 10SM FEW030 FEW100 21/12 A2973 RMK AO2 SLP071 FU ALQDS T02110122
cycle: 20

Station Type Date Time Source
PAFA TAF 2019/07/15 18:27 UTC NOAA

TAF PAFA 151722Z 1518/1624 05004KT P6SM FEW050 SCT100
FM152000 19004KT P6SM VCTS SCT050CB BKN100
FM160400 VRB03KT P6SM SCT050
FM161400 10004KT P6SM BKN050 BKN100
FM162000 20004KT P6SM VCTS BKN050CB BKN100

Example: see airport list